Time;durP1;ratioP1;P1;durP2;ratioP2;P2;SDS_P1;SDS_P2;PMS_P1;PMS_P2;Temp;Humidity;BMP_temperature;BMP_pressure;BME280_temperature;BME280_humidity;BME280_pressure;Samples;Min_cycle;Max_cycle;Signal;HPM_P1;HPM_P2
2020/12/25 00:00:23;;;;;;;4.95;1.17;;;;;;;;;;4942364;29;20130;-61
2020/12/25 00:02:49;;;;;;;3.10;1.05;;;;;;;;;;4929095;29;20079;-61
2020/12/25 00:05:15;;;;;;;3.17;0.90;;;;;;;;;;4944498;29;20082;-62
2020/12/25 00:07:41;;;;;;;3.53;1.05;;;;;;;;;;4946156;29;20072;-62
2020/12/25 00:10:06;;;;;;;6.57;1.23;;;;;;;;;;4945364;29;20039;-62
2020/12/25 00:12:32;;;;;;;4.82;1.25;;;;;;;;;;4946080;29;20043;-62
2020/12/25 00:14:58;;;;;;;4.10;1.13;;;;;;;;;;4945195;29;20040;-62
2020/12/25 00:17:24;;;;;;;4.60;1.10;;;;;;;;;;4943117;29;20106;-62
2020/12/25 00:19:50;;;;;;;4.90;1.23;;;;;;;;;;4945366;29;20043;-61
2020/12/25 00:22:16;;;;;;;3.10;1.10;;;;;;;;;;4945830;29;20074;-61
2020/12/25 00:24:41;;;;;;;3.92;1.15;;;;;;;;;;4942703;29;20050;-62
2020/12/25 00:27:07;;;;;;;3.33;1.15;;;;;;;;;;4945084;29;20098;-61
2020/12/25 00:29:33;;;;;;;5.63;1.30;;;;;;;;;;4945410;29;20061;-61
2020/12/25 00:31:59;;;;;;;4.55;1.35;;;;;;;;;;4944784;29;20055;-62
2020/12/25 00:34:25;;;;;;;4.68;1.20;;;;;;;;;;4942067;29;20036;-62
2020/12/25 00:36:51;;;;;;;3.53;1.15;;;;;;;;;;4942564;29;20067;-62
2020/12/25 00:39:17;;;;;;;6.65;1.73;;;;;;;;;;4928697;29;20071;-62
2020/12/25 00:41:48;;;;;;;4.00;1.40;;;;;;;;;;4942665;29;20122;-62
2020/12/25 00:44:13;;;;;;;4.28;1.63;;;;;;;;;;4943788;29;20063;-61
2020/12/25 00:46:40;;;;;;;5.22;1.60;;;;;;;;;;4942249;29;20039;-62
2020/12/25 00:49:06;;;;;;;3.88;1.80;;;;;;;;;;4944847;29;20031;-62
2020/12/25 00:51:31;;;;;;;6.68;1.80;;;;;;;;;;4942212;29;20039;-61
2020/12/25 00:53:57;;;;;;;5.22;1.55;;;;;;;;;;4944101;29;20503;-61
2020/12/25 00:56:23;;;;;;;4.75;1.55;;;;;;;;;;4943680;29;20071;-62
2020/12/25 00:58:49;;;;;;;4.60;1.83;;;;;;;;;;4945413;29;20054;-62
2020/12/25 01:01:15;;;;;;;4.22;1.60;;;;;;;;;;4943391;29;20109;-62
2020/12/25 01:03:42;;;;;;;3.78;1.55;;;;;;;;;;4943409;29;20051;-61
2020/12/25 01:06:11;;;;;;;5.82;1.65;;;;;;;;;;4943155;29;20054;-61
2020/12/25 01:08:37;;;;;;;6.68;1.52;;;;;;;;;;4943741;29;20035;-61
2020/12/25 01:11:04;;;;;;;4.32;1.50;;;;;;;;;;4945436;29;20045;-61
2020/12/25 01:13:30;;;;;;;4.95;1.55;;;;;;;;;;4943529;29;20031;-62
2020/12/25 01:16:00;;;;;;;6.35;1.83;;;;;;;;;;4941311;29;20082;-61
2020/12/25 01:18:26;;;;;;;4.40;1.58;;;;;;;;;;4943465;29;20036;-61
2020/12/25 01:20:52;;;;;;;8.77;1.50;;;;;;;;;;4943437;29;20355;-61
2020/12/25 01:23:18;;;;;;;3.83;1.50;;;;;;;;;;4943696;29;20046;-61
2020/12/25 01:25:44;;;;;;;4.93;1.30;;;;;;;;;;4942168;29;20070;-61
2020/12/25 01:28:09;;;;;;;5.65;1.50;;;;;;;;;;4944129;29;20444;-61
2020/12/25 01:30:35;;;;;;;7.03;1.70;;;;;;;;;;4943777;29;20051;-61
2020/12/25 01:33:01;;;;;;;5.82;1.42;;;;;;;;;;4944624;29;20043;-61
2020/12/25 01:35:27;;;;;;;7.45;1.58;;;;;;;;;;4942875;29;20063;-61
2020/12/25 01:37:53;;;;;;;4.03;1.17;;;;;;;;;;4943855;29;20043;-61
2020/12/25 01:40:19;;;;;;;5.43;1.40;;;;;;;;;;4944382;29;20055;-61
2020/12/25 01:42:45;;;;;;;4.65;1.05;;;;;;;;;;4944135;29;20054;-59
2020/12/25 01:45:10;;;;;;;3.47;1.23;;;;;;;;;;4942999;29;20043;-60
2020/12/25 01:47:36;;;;;;;5.20;1.40;;;;;;;;;;4943752;29;20109;-60
2020/12/25 01:50:03;;;;;;;3.55;1.20;;;;;;;;;;4946811;29;20054;-61
2020/12/25 01:52:29;;;;;;;3.85;1.50;;;;;;;;;;4943920;29;20062;-61
2020/12/25 01:54:55;;;;;;;3.70;1.10;;;;;;;;;;4942887;29;20157;-60
2020/12/25 01:57:22;;;;;;;3.47;1.20;;;;;;;;;;4944316;29;20287;-60
2020/12/25 01:59:50;;;;;;;2.95;1.05;;;;;;;;;;4944694;29;20048;-59
2020/12/25 02:02:16;;;;;;;5.45;1.20;;;;;;;;;;4944154;29;20051;-60
2020/12/25 02:04:42;;;;;;;3.55;1.10;;;;;;;;;;4946504;29;20099;-61
2020/12/25 02:07:08;;;;;;;2.70;0.90;;;;;;;;;;4948313;29;20078;-62
2020/12/25 02:09:34;;;;;;;3.40;1.00;;;;;;;;;;4948158;29;20118;-60
2020/12/25 02:12:00;;;;;;;3.78;1.17;;;;;;;;;;4947985;29;20040;-59
2020/12/25 02:14:26;;;;;;;3.45;1.00;;;;;;;;;;4946889;29;20036;-61
2020/12/25 02:16:51;;;;;;;3.63;1.00;;;;;;;;;;4949542;29;20054;-62
2020/12/25 02:19:17;;;;;;;2.70;0.85;;;;;;;;;;4947821;29;20118;-60
2020/12/25 02:21:43;;;;;;;3.47;1.10;;;;;;;;;;4945302;29;21785;-61
2020/12/25 02:24:09;;;;;;;6.40;1.08;;;;;;;;;;4947603;29;20043;-62
2020/12/25 02:26:38;;;;;;;2.72;0.75;;;;;;;;;;4945373;29;20071;-60
2020/12/25 02:29:04;;;;;;;6.80;1.10;;;;;;;;;;4947908;29;20039;-61
2020/12/25 02:31:29;;;;;;;5.03;1.25;;;;;;;;;;4946683;29;20059;-61
2020/12/25 02:33:55;;;;;;;3.05;0.80;;;;;;;;;;4948526;29;20105;-60
2020/12/25 02:36:21;;;;;;;3.00;0.88;;;;;;;;;;4946265;29;20043;-61
2020/12/25 02:38:47;;;;;;;4.20;0.98;;;;;;;;;;4946912;29;20039;-62
2020/12/25 02:41:13;;;;;;;4.03;1.20;;;;;;;;;;4947526;29;20051;-60
2020/12/25 02:43:39;;;;;;;4.35;1.10;;;;;;;;;;4946727;29;21332;-60
2020/12/25 02:46:04;;;;;;;3.95;1.17;;;;;;;;;;4945193;29;20055;-60
2020/12/25 02:48:30;;;;;;;4.28;0.93;;;;;;;;;;4946295;29;20043;-61
2020/12/25 02:50:56;;;;;;;3.00;1.10;;;;;;;;;;4947187;29;20131;-61
2020/12/25 02:53:22;;;;;;;4.25;1.33;;;;;;;;;;4947628;29;20113;-61
2020/12/25 02:55:48;;;;;;;3.75;1.10;;;;;;;;;;4946465;29;20044;-61
2020/12/25 02:58:13;;;;;;;5.68;1.10;;;;;;;;;;4946407;29;20183;-61
2020/12/25 03:00:39;;;;;;;5.05;0.80;;;;;;;;;;4948219;29;20051;-63
2020/12/25 03:03:05;;;;;;;2.28;0.75;;;;;;;;;;4945735;29;20051;-61
2020/12/25 03:05:31;;;;;;;3.65;0.93;;;;;;;;;;4946017;29;20048;-61
2020/12/25 03:07:57;;;;;;;5.93;0.90;;;;;;;;;;4946402;29;20051;-62
2020/12/25 03:10:23;;;;;;;4.38;0.90;;;;;;;;;;4946021;29;20035;-62
2020/12/25 03:12:48;;;;;;;2.85;0.90;;;;;;;;;;4946404;29;20095;-61
2020/12/25 03:15:14;;;;;;;3.25;0.90;;;;;;;;;;4946283;29;20110;-62
2020/12/25 03:17:40;;;;;;;2.17;0.73;;;;;;;;;;4947277;29;20044;-62
2020/12/25 03:20:06;;;;;;;2.85;0.90;;;;;;;;;;4946115;29;20032;-62
2020/12/25 03:22:32;;;;;;;4.88;0.90;;;;;;;;;;4943722;29;20055;-62
2020/12/25 03:24:58;;;;;;;3.78;0.73;;;;;;;;;;4945819;29;20054;-61
2020/12/25 03:27:23;;;;;;;4.68;1.08;;;;;;;;;;4943776;29;20035;-62
2020/12/25 03:29:49;;;;;;;3.58;0.85;;;;;;;;;;4947556;29;20069;-60
2020/12/25 03:32:15;;;;;;;5.53;0.90;;;;;;;;;;4946878;29;20043;-61
2020/12/25 03:34:41;;;;;;;5.82;1.00;;;;;;;;;;4945786;29;20051;-62
2020/12/25 03:37:07;;;;;;;6.45;0.90;;;;;;;;;;4947848;29;20048;-62
2020/12/25 03:39:33;;;;;;;2.80;0.77;;;;;;;;;;4947559;29;20128;-61
2020/12/25 03:41:58;;;;;;;3.47;0.80;;;;;;;;;;4949013;29;20520;-62
2020/12/25 03:44:24;;;;;;;2.22;0.70;;;;;;;;;;4945726;29;20404;-62
2020/12/25 03:46:50;;;;;;;3.78;0.90;;;;;;;;;;4947523;29;20488;-62
2020/12/25 03:49:16;;;;;;;3.40;0.90;;;;;;;;;;4945521;29;20047;-62
2020/12/25 03:51:42;;;;;;;2.65;0.90;;;;;;;;;;4945885;29;20050;-62
2020/12/25 03:54:08;;;;;;;4.32;1.38;;;;;;;;;;4945809;29;20051;-62
2020/12/25 03:56:33;;;;;;;4.50;1.20;;;;;;;;;;4944607;29;20129;-62
2020/12/25 03:58:59;;;;;;;3.13;1.02;;;;;;;;;;4947074;29;20479;-62
2020/12/25 04:01:25;;;;;;;7.85;1.10;;;;;;;;;;4944963;29;20417;-62
2020/12/25 04:03:51;;;;;;;3.75;0.80;;;;;;;;;;4945193;29;22103;-62
2020/12/25 04:06:17;;;;;;;4.35;0.90;;;;;;;;;;4945381;29;20050;-62
2020/12/25 04:08:46;;;;;;;4.10;0.95;;;;;;;;;;4944971;29;20058;-62
2020/12/25 04:11:12;;;;;;;4.47;0.90;;;;;;;;;;4944932;29;20047;-60
2020/12/25 04:13:38;;;;;;;5.40;0.95;;;;;;;;;;4945454;29;20043;-58
2020/12/25 04:16:04;;;;;;;3.33;0.85;;;;;;;;;;4944709;29;20097;-61
2020/12/25 04:18:30;;;;;;;4.85;1.15;;;;;;;;;;4943807;29;20039;-60
2020/12/25 04:20:59;;;;;;;3.33;0.80;;;;;;;;;;4942459;29;20118;-60
2020/12/25 04:23:27;;;;;;;2.97;0.80;;;;;;;;;;4944074;29;21545;-59
2020/12/25 04:25:53;;;;;;;3.15;0.80;;;;;;;;;;4942928;28;20075;-60
2020/12/25 04:28:19;;;;;;;2.47;0.70;;;;;;;;;;4942893;29;20043;-60
2020/12/25 04:30:45;;;;;;;2.35;0.73;;;;;;;;;;4945885;29;20447;-61
2020/12/25 04:33:11;;;;;;;2.88;0.80;;;;;;;;;;4944952;29;20043;-59
2020/12/25 04:35:37;;;;;;;4.00;0.80;;;;;;;;;;4944185;29;20062;-61
2020/12/25 04:38:03;;;;;;;3.50;0.90;;;;;;;;;;4943014;29;20106;-60
2020/12/25 04:40:30;;;;;;;3.70;0.90;;;;;;;;;;4943376;29;20055;-61
2020/12/25 04:42:57;;;;;;;2.70;0.80;;;;;;;;;;4945114;29;20059;-59
2020/12/25 04:45:23;;;;;;;3.17;1.00;;;;;;;;;;4939054;29;20047;-59
2020/12/25 04:47:51;;;;;;;2.40;0.60;;;;;;;;;;4938094;28;20043;-60
2020/12/25 04:50:17;;;;;;;2.40;0.70;;;;;;;;;;4944304;29;20040;-62
2020/12/25 04:52:47;;;;;;;3.15;0.98;;;;;;;;;;4944242;29;20049;-61
2020/12/25 04:55:13;;;;;;;4.40;0.80;;;;;;;;;;4942438;29;20035;-61
2020/12/25 04:57:38;;;;;;;3.03;0.80;;;;;;;;;;4941851;29;20129;-61
2020/12/25 05:00:17;;;;;;;2.50;0.73;;;;;;;;;;4943545;29;20043;-60
2020/12/25 05:02:43;;;;;;;2.85;0.90;;;;;;;;;;4942533;29;20050;-61
2020/12/25 05:05:09;;;;;;;3.83;0.80;;;;;;;;;;4941422;29;20063;-61
2020/12/25 05:07:36;;;;;;;3.53;0.70;;;;;;;;;;4944395;29;20080;-60
2020/12/25 05:10:06;;;;;;;2.17;0.70;;;;;;;;;;4945918;29;20429;-60
2020/12/25 05:12:33;;;;;;;4.88;0.90;;;;;;;;;;4944413;28;20066;-61
2020/12/25 05:14:59;;;;;;;2.20;0.60;;;;;;;;;;4943534;29;20091;-60
2020/12/25 05:17:25;;;;;;;1.75;0.50;;;;;;;;;;4944518;29;20571;-60
2020/12/25 05:19:51;;;;;;;2.13;0.63;;;;;;;;;;4943334;29;20048;-60
2020/12/25 05:22:17;;;;;;;4.68;0.95;;;;;;;;;;4943055;29;20126;-61
2020/12/25 05:24:43;;;;;;;4.30;1.05;;;;;;;;;;4942837;29;20040;-61
2020/12/25 05:27:12;;;;;;;4.13;0.60;;;;;;;;;;4944125;29;20130;-61
2020/12/25 05:29:39;;;;;;;3.15;0.70;;;;;;;;;;4941122;29;20063;-60
2020/12/25 05:32:05;;;;;;;1.90;0.60;;;;;;;;;;4944279;29;20043;-61
2020/12/25 05:34:33;;;;;;;2.65;0.70;;;;;;;;;;4942290;29;20047;-62
2020/12/25 05:37:00;;;;;;;2.22;0.60;;;;;;;;;;4943881;29;20039;-62
2020/12/25 05:39:27;;;;;;;2.35;0.60;;;;;;;;;;4942220;29;20036;-61
2020/12/25 05:41:54;;;;;;;2.78;0.70;;;;;;;;;;4943866;29;20086;-62
2020/12/25 05:44:20;;;;;;;3.33;0.60;;;;;;;;;;4944517;29;21132;-61
2020/12/25 05:46:47;;;;;;;4.72;0.88;;;;;;;;;;4944674;29;20075;-61
2020/12/25 05:49:13;;;;;;;2.30;0.60;;;;;;;;;;4942833;29;20063;-60
2020/12/25 05:51:49;;;;;;;2.17;0.77;;;;;;;;;;4942493;29;20046;-61
2020/12/25 05:54:22;;;;;;;1.83;0.50;;;;;;;;;;4944772;29;20054;-61
2020/12/25 05:56:57;;;;;;;1.95;0.65;;;;;;;;;;4943329;29;20273;-61
2020/12/25 05:59:28;;;;;;;2.30;0.60;;;;;;;;;;4941847;29;20043;-62
2020/12/25 06:01:58;;;;;;;2.10;0.77;;;;;;;;;;4942253;29;20123;-62
2020/12/25 06:04:25;;;;;;;3.15;0.80;;;;;;;;;;4941284;29;20130;-61
2020/12/25 06:06:51;;;;;;;4.43;0.70;;;;;;;;;;4944339;29;20047;-62
2020/12/25 06:09:18;;;;;;;2.33;0.63;;;;;;;;;;4943148;29;20121;-61
2020/12/25 06:11:48;;;;;;;2.15;0.60;;;;;;;;;;4943807;29;20044;-61
2020/12/25 06:14:14;;;;;;;2.58;0.77;;;;;;;;;;4943777;29;20044;-62
2020/12/25 06:16:44;;;;;;;2.85;0.80;;;;;;;;;;4944507;29;20053;-61
2020/12/25 06:19:30;;;;;;;1.98;0.60;;;;;;;;;;4942134;29;20074;-61
2020/12/25 06:21:57;;;;;;;2.38;0.70;;;;;;;;;;4940789;29;20142;-61
2020/12/25 06:24:26;;;;;;;2.78;0.70;;;;;;;;;;4916069;29;20048;-62
2020/12/25 06:26:58;;;;;;;2.50;0.70;;;;;;;;;;4941346;29;20059;-61
2020/12/25 06:29:25;;;;;;;4.45;0.63;;;;;;;;;;4942082;29;20090;-61
2020/12/25 06:31:53;;;;;;;1.75;0.57;;;;;;;;;;4943245;29;20381;-62
2020/12/25 06:34:19;;;;;;;2.83;0.80;;;;;;;;;;4940979;29;20040;-62
2020/12/25 06:36:46;;;;;;;2.67;0.82;;;;;;;;;;4942743;29;20142;-61
2020/12/25 06:39:13;;;;;;;2.53;0.70;;;;;;;;;;4944859;29;20046;-60
2020/12/25 06:41:40;;;;;;;4.18;0.73;;;;;;;;;;4943138;29;20075;-61
2020/12/25 06:44:09;;;;;;;2.25;0.65;;;;;;;;;;4943606;29;20043;-61
2020/12/25 06:46:35;;;;;;;2.63;0.80;;;;;;;;;;4943337;29;20075;-62
2020/12/25 06:49:07;;;;;;;4.45;1.00;;;;;;;;;;4943754;29;20047;-62
2020/12/25 06:51:39;;;;;;;2.80;0.80;;;;;;;;;;4946341;29;20047;-62
2020/12/25 06:54:05;;;;;;;2.10;0.50;;;;;;;;;;4945802;29;20122;-62
2020/12/25 06:56:40;;;;;;;2.55;1.00;;;;;;;;;;4946312;29;20504;-60
2020/12/25 06:59:12;;;;;;;2.75;0.70;;;;;;;;;;4946492;29;20048;-61
2020/12/25 07:01:39;;;;;;;2.20;0.77;;;;;;;;;;4947502;29;20135;-61
2020/12/25 07:04:05;;;;;;;3.45;0.70;;;;;;;;;;4945345;29;20082;-61
2020/12/25 07:06:31;;;;;;;2.45;0.93;;;;;;;;;;4946703;29;20734;-61
2020/12/25 07:09:17;;;;;;;1.92;0.60;;;;;;;;;;4947353;29;20043;-61
2020/12/25 07:11:43;;;;;;;2.35;0.63;;;;;;;;;;4946676;29;20043;-62
2020/12/25 07:14:09;;;;;;;2.78;0.65;;;;;;;;;;4946376;29;20043;-61
2020/12/25 07:16:35;;;;;;;1.77;0.50;;;;;;;;;;4947887;29;20504;-61
2020/12/25 07:19:01;;;;;;;1.83;0.60;;;;;;;;;;4946594;29;20043;-60
2020/12/25 07:21:29;;;;;;;3.08;1.00;;;;;;;;;;4945023;29;20075;-61
2020/12/25 07:23:54;;;;;;;1.70;0.50;;;;;;;;;;4947938;29;20256;-61
2020/12/25 07:26:20;;;;;;;1.15;0.40;;;;;;;;;;4945296;29;20046;-62
2020/12/25 07:28:47;;;;;;;1.27;0.70;;;;;;;;;;4946415;29;20071;-62
2020/12/25 07:31:13;;;;;;;1.35;0.50;;;;;;;;;;4946720;29;20043;-61
2020/12/25 07:33:39;;;;;;;2.03;0.60;;;;;;;;;;4944003;29;20054;-62
2020/12/25 07:36:11;;;;;;;2.08;0.50;;;;;;;;;;4946606;29;20044;-62
2020/12/25 07:38:37;;;;;;;1.48;0.50;;;;;;;;;;4944752;29;20062;-62
2020/12/25 07:41:03;;;;;;;2.17;0.50;;;;;;;;;;4945248;29;20039;-62
2020/12/25 07:43:29;;;;;;;2.33;0.43;;;;;;;;;;4945074;29;20511;-62
2020/12/25 07:45:55;;;;;;;1.92;0.60;;;;;;;;;;4928534;29;20043;-61
2020/12/25 07:48:22;;;;;;;0.98;0.40;;;;;;;;;;4944141;29;20047;-61
2020/12/25 07:50:48;;;;;;;4.00;0.50;;;;;;;;;;4945241;29;20044;-62
2020/12/25 07:53:17;;;;;;;1.42;0.50;;;;;;;;;;4944151;29;20064;-62
2020/12/25 07:55:50;;;;;;;2.28;0.75;;;;;;;;;;4945406;29;20054;-61
2020/12/25 07:58:16;;;;;;;1.50;0.50;;;;;;;;;;4947750;29;20093;-62
2020/12/25 08:00:42;;;;;;;1.67;0.50;;;;;;;;;;4943774;28;20043;-61
2020/12/25 08:03:09;;;;;;;1.60;0.50;;;;;;;;;;4945032;29;20115;-62
2020/12/25 08:05:35;;;;;;;2.63;0.60;;;;;;;;;;4943178;29;20096;-62
2020/12/25 08:08:01;;;;;;;1.85;0.60;;;;;;;;;;4945460;29;20047;-62
2020/12/25 08:10:27;;;;;;;3.78;0.75;;;;;;;;;;4944736;29;20035;-61
2020/12/25 08:12:57;;;;;;;2.83;0.73;;;;;;;;;;4945639;29;20055;-62
2020/12/25 08:15:23;;;;;;;4.95;0.70;;;;;;;;;;4944235;29;20111;-62
2020/12/25 08:17:58;;;;;;;2.22;0.70;;;;;;;;;;4947329;29;20145;-62
2020/12/25 08:20:25;;;;;;;2.70;0.70;;;;;;;;;;4945521;29;20043;-60
2020/12/25 08:22:57;;;;;;;2.25;0.70;;;;;;;;;;4945146;29;20067;-61
2020/12/25 08:25:23;;;;;;;2.15;0.60;;;;;;;;;;4944306;29;20125;-61
2020/12/25 08:27:48;;;;;;;2.08;0.60;;;;;;;;;;4944584;29;20052;-61
2020/12/25 08:30:14;;;;;;;4.25;0.70;;;;;;;;;;4945273;29;20047;-61
2020/12/25 08:32:40;;;;;;;2.33;0.70;;;;;;;;;;4935790;29;20070;-61
2020/12/25 08:35:14;;;;;;;1.75;0.50;;;;;;;;;;4944827;29;20054;-62
2020/12/25 08:37:50;;;;;;;5.10;0.70;;;;;;;;;;4945434;29;20065;-61
2020/12/25 08:40:16;;;;;;;5.32;1.05;;;;;;;;;;4943122;29;20266;-62
2020/12/25 08:42:42;;;;;;;2.20;0.63;;;;;;;;;;4943927;29;20109;-62
2020/12/25 08:45:08;;;;;;;1.98;0.60;;;;;;;;;;4943701;29;21009;-62
2020/12/25 08:47:34;;;;;;;1.60;0.50;;;;;;;;;;4944544;29;20107;-62
2020/12/25 08:50:00;;;;;;;1.77;0.43;;;;;;;;;;4945987;29;20059;-62
2020/12/25 08:52:26;;;;;;;3.35;0.70;;;;;;;;;;4942635;29;20535;-62
2020/12/25 08:54:56;;;;;;;1.98;0.50;;;;;;;;;;4944565;29;20043;-62
2020/12/25 08:57:22;;;;;;;3.47;0.70;;;;;;;;;;4927610;29;20062;-62
2020/12/25 08:59:48;;;;;;;3.15;0.68;;;;;;;;;;4946050;29;20805;-62
2020/12/25 09:02:15;;;;;;;2.03;0.60;;;;;;;;;;4930600;29;20047;-62
2020/12/25 09:04:41;;;;;;;1.65;0.50;;;;;;;;;;4942048;29;20374;-62
2020/12/25 09:07:07;;;;;;;2.40;0.70;;;;;;;;;;4946802;29;20047;-62
2020/12/25 09:09:33;;;;;;;1.95;0.60;;;;;;;;;;4944459;29;20036;-62
2020/12/25 09:11:58;;;;;;;2.05;0.60;;;;;;;;;;4944943;29;20086;-62
2020/12/25 09:14:24;;;;;;;2.47;0.68;;;;;;;;;;4942560;29;20106;-62
2020/12/25 09:16:50;;;;;;;2.55;0.60;;;;;;;;;;4945062;29;20059;-62
2020/12/25 09:19:16;;;;;;;2.28;0.65;;;;;;;;;;4942266;29;20047;-62
2020/12/25 09:21:42;;;;;;;2.30;0.60;;;;;;;;;;4943964;29;20066;-63
2020/12/25 09:24:08;;;;;;;2.15;0.50;;;;;;;;;;4944207;29;22172;-62
2020/12/25 09:26:35;;;;;;;4.47;0.80;;;;;;;;;;4944475;29;20126;-62
2020/12/25 09:29:00;;;;;;;2.03;0.60;;;;;;;;;;4928516;29;20069;-62
2020/12/25 09:31:26;;;;;;;3.72;0.50;;;;;;;;;;4943164;29;20040;-62
2020/12/25 09:33:52;;;;;;;2.30;0.60;;;;;;;;;;4943618;29;20036;-62
2020/12/25 09:36:18;;;;;;;2.33;0.60;;;;;;;;;;4944224;29;20145;-61
2020/12/25 09:38:44;;;;;;;2.17;0.55;;;;;;;;;;4946078;29;20424;-62
2020/12/25 09:41:11;;;;;;;3.38;0.60;;;;;;;;;;4943285;29;20746;-61
2020/12/25 09:43:37;;;;;;;3.53;0.60;;;;;;;;;;4943682;29;20058;-62
2020/12/25 09:46:03;;;;;;;2.72;0.82;;;;;;;;;;4945846;29;20043;-63
2020/12/25 09:48:29;;;;;;;2.70;0.60;;;;;;;;;;4944143;29;20035;-62
2020/12/25 09:50:55;;;;;;;2.42;0.70;;;;;;;;;;4942889;29;20121;-62
2020/12/25 09:53:21;;;;;;;3.55;0.65;;;;;;;;;;4942778;29;20043;-62
2020/12/25 09:55:48;;;;;;;2.13;0.50;;;;;;;;;;4943739;29;20039;-62
2020/12/25 09:58:14;;;;;;;2.17;0.50;;;;;;;;;;4944329;29;20042;-62
2020/12/25 10:00:40;;;;;;;2.80;0.60;;;;;;;;;;4942076;29;20142;-62
2020/12/25 10:03:06;;;;;;;2.47;0.80;;;;;;;;;;4944527;29;20130;-62
2020/12/25 10:05:32;;;;;;;4.03;0.77;;;;;;;;;;4941685;29;20054;-62
2020/12/25 10:07:58;;;;;;;2.83;1.00;;;;;;;;;;4945914;29;20063;-62
2020/12/25 10:10:24;;;;;;;1.88;0.50;;;;;;;;;;4942977;29;20035;-62
2020/12/25 10:12:50;;;;;;;4.32;0.90;;;;;;;;;;4943338;29;20058;-62
2020/12/25 10:15:16;;;;;;;2.28;0.77;;;;;;;;;;4943738;29;20118;-61
2020/12/25 10:17:42;;;;;;;4.22;0.80;;;;;;;;;;4944325;29;20040;-60
2020/12/25 10:20:08;;;;;;;3.40;0.88;;;;;;;;;;4946124;29;20039;-61
2020/12/25 10:22:34;;;;;;;2.33;0.70;;;;;;;;;;4943299;29;20111;-62
2020/12/25 10:25:00;;;;;;;2.67;0.73;;;;;;;;;;4946507;29;20039;-62
2020/12/25 10:27:26;;;;;;;9.07;3.20;;;;;;;;;;4948071;29;20043;-61
2020/12/25 10:29:52;;;;;;;4.80;2.03;;;;;;;;;;4948180;29;20118;-62
2020/12/25 10:32:18;;;;;;;5.82;2.08;;;;;;;;;;4948264;29;20047;-62
2020/12/25 10:34:44;;;;;;;7.18;1.63;;;;;;;;;;4946706;29;20058;-62
2020/12/25 10:37:10;;;;;;;2.80;0.90;;;;;;;;;;4948616;29;20098;-62
2020/12/25 10:39:37;;;;;;;2.45;0.75;;;;;;;;;;4946526;29;20562;-62
2020/12/25 10:42:12;;;;;;;2.85;0.68;;;;;;;;;;4947044;29;20056;-61
2020/12/25 10:44:38;;;;;;;2.70;0.73;;;;;;;;;;4946157;29;20039;-62
2020/12/25 10:47:04;;;;;;;3.42;0.60;;;;;;;;;;4947496;29;20043;-62
2020/12/25 10:49:30;;;;;;;4.43;0.80;;;;;;;;;;4947668;29;20043;-61
2020/12/25 10:51:56;;;;;;;3.22;1.25;;;;;;;;;;4945593;29;20505;-61
2020/12/25 10:54:22;;;;;;;2.63;0.60;;;;;;;;;;4946596;29;20043;-61
2020/12/25 10:56:48;;;;;;;4.68;0.80;;;;;;;;;;4948613;29;20047;-62
2020/12/25 10:59:14;;;;;;;2.53;0.70;;;;;;;;;;4948094;29;20055;-61
2020/12/25 11:01:40;;;;;;;4.07;0.88;;;;;;;;;;4948112;29;20211;-62
2020/12/25 11:04:06;;;;;;;3.90;0.70;;;;;;;;;;4944956;29;20059;-61
2020/12/25 11:06:31;;;;;;;3.25;0.70;;;;;;;;;;4947283;29;20046;-61
2020/12/25 11:08:58;;;;;;;2.70;0.73;;;;;;;;;;4947399;29;20496;-62
2020/12/25 11:11:24;;;;;;;2.60;0.80;;;;;;;;;;4944004;29;20062;-62
2020/12/25 11:13:50;;;;;;;2.42;0.70;;;;;;;;;;4945057;29;20044;-61
2020/12/25 11:16:26;;;;;;;3.60;1.00;;;;;;;;;;4948173;29;20046;-62
2020/12/25 11:18:53;;;;;;;3.13;0.70;;;;;;;;;;4946916;29;20098;-61
2020/12/25 11:21:28;;;;;;;2.53;0.73;;;;;;;;;;4945295;29;20101;-61
2020/12/25 11:23:55;;;;;;;2.72;0.70;;;;;;;;;;4947864;29;20070;-61
2020/12/25 11:26:25;;;;;;;2.75;0.82;;;;;;;;;;4944762;29;20047;-61
2020/12/25 11:28:51;;;;;;;2.22;0.60;;;;;;;;;;4947026;29;20199;-62
2020/12/25 11:31:18;;;;;;;3.83;0.80;;;;;;;;;;4946058;29;20047;-62
2020/12/25 11:33:45;;;;;;;2.13;0.65;;;;;;;;;;4948698;29;20071;-61
2020/12/25 11:36:12;;;;;;;2.58;0.63;;;;;;;;;;4946516;29;20032;-61
2020/12/25 11:38:38;;;;;;;3.42;0.90;;;;;;;;;;4945577;29;20044;-62
2020/12/25 11:41:06;;;;;;;2.70;1.00;;;;;;;;;;4947666;29;20039;-62
2020/12/25 11:43:32;;;;;;;2.70;0.70;;;;;;;;;;4947595;29;20535;-61
2020/12/25 11:45:58;;;;;;;2.70;0.70;;;;;;;;;;4946966;29;20050;-61
2020/12/25 11:48:24;;;;;;;2.83;0.63;;;;;;;;;;4946465;29;20039;-61
2020/12/25 11:50:50;;;;;;;1.98;0.60;;;;;;;;;;4946865;29;20058;-61
2020/12/25 11:53:16;;;;;;;2.70;0.70;;;;;;;;;;4946991;29;20039;-61
2020/12/25 11:55:41;;;;;;;2.30;0.80;;;;;;;;;;4947151;29;20127;-61
2020/12/25 11:58:07;;;;;;;2.65;0.80;;;;;;;;;;4936731;29;20051;-61
2020/12/25 12:00:33;;;;;;;2.35;0.77;;;;;;;;;;4937449;29;20046;-60
2020/12/25 12:02:59;;;;;;;3.17;0.90;;;;;;;;;;4946407;29;20059;-61
2020/12/25 12:05:25;;;;;;;2.42;0.80;;;;;;;;;;4948223;29;20059;-61
2020/12/25 12:07:51;;;;;;;4.25;0.73;;;;;;;;;;4949268;29;20066;-60
2020/12/25 12:10:16;;;;;;;2.67;0.80;;;;;;;;;;4949852;29;20052;-61
2020/12/25 12:12:42;;;;;;;3.90;0.80;;;;;;;;;;4948205;29;20047;-61
2020/12/25 12:15:08;;;;;;;2.65;0.82;;;;;;;;;;4950643;29;20045;-62
2020/12/25 12:17:35;;;;;;;5.07;0.63;;;;;;;;;;4947149;29;20047;-61
2020/12/25 12:20:01;;;;;;;3.33;0.65;;;;;;;;;;4950048;29;20071;-61
2020/12/25 12:22:27;;;;;;;2.92;0.70;;;;;;;;;;4949193;29;20070;-61
2020/12/25 12:24:53;;;;;;;2.13;0.63;;;;;;;;;;4951930;29;20050;-61
2020/12/25 12:27:19;;;;;;;3.20;0.90;;;;;;;;;;4951470;29;20043;-61
2020/12/25 12:29:45;;;;;;;3.42;0.75;;;;;;;;;;4959683;29;20218;-61
2020/12/25 12:32:11;;;;;;;3.92;0.90;;;;;;;;;;4961437;29;20049;-61
2020/12/25 12:34:37;;;;;;;2.28;0.60;;;;;;;;;;4960638;29;20079;-62
2020/12/25 12:37:03;;;;;;;2.50;0.82;;;;;;;;;;4941072;29;20043;-62
2020/12/25 12:39:29;;;;;;;2.47;0.73;;;;;;;;;;4960466;29;20027;-61
2020/12/25 12:41:58;;;;;;;2.00;0.63;;;;;;;;;;4956816;29;20103;-59
2020/12/25 12:44:24;;;;;;;2.00;0.50;;;;;;;;;;4958391;29;20036;-61
2020/12/25 12:46:56;;;;;;;1.80;0.60;;;;;;;;;;4954703;28;20055;-62
2020/12/25 12:49:22;;;;;;;2.25;0.70;;;;;;;;;;4948896;29;20362;-61
2020/12/25 12:51:48;;;;;;;2.30;0.70;;;;;;;;;;4947005;29;20062;-61
2020/12/25 12:54:13;;;;;;;1.75;0.60;;;;;;;;;;4947173;29;20103;-61
2020/12/25 12:56:39;;;;;;;1.65;0.60;;;;;;;;;;4945193;29;20055;-58
2020/12/25 12:59:05;;;;;;;2.55;0.73;;;;;;;;;;4946079;29;20078;-59
2020/12/25 13:01:31;;;;;;;2.20;0.57;;;;;;;;;;4944201;29;20047;-60
2020/12/25 13:03:57;;;;;;;2.10;0.70;;;;;;;;;;4945108;29;20043;-61
2020/12/25 13:06:23;;;;;;;2.00;0.70;;;;;;;;;;4943565;29;20039;-60
2020/12/25 13:08:49;;;;;;;2.17;0.65;;;;;;;;;;4943740;29;20119;-61
2020/12/25 13:11:23;;;;;;;5.13;0.60;;;;;;;;;;4944709;29;20043;-59
2020/12/25 13:13:48;;;;;;;2.97;0.70;;;;;;;;;;4945943;29;20405;-62
2020/12/25 13:16:18;;;;;;;3.95;0.98;;;;;;;;;;4944658;29;20039;-62
2020/12/25 13:18:44;;;;;;;3.08;0.77;;;;;;;;;;4926856;29;20054;-61
2020/12/25 13:21:09;;;;;;;5.13;1.00;;;;;;;;;;4945642;29;20039;-61
2020/12/25 13:23:35;;;;;;;3.10;0.63;;;;;;;;;;4944532;29;20055;-61
2020/12/25 13:26:01;;;;;;;2.65;0.80;;;;;;;;;;4945654;29;20048;-61
2020/12/25 13:28:27;;;;;;;3.30;0.60;;;;;;;;;;4945212;29;20042;-62
2020/12/25 13:30:53;;;;;;;5.53;0.85;;;;;;;;;;4945040;29;20449;-62
2020/12/25 13:33:18;;;;;;;2.95;0.90;;;;;;;;;;4944339;29;20377;-62
2020/12/25 13:35:44;;;;;;;2.15;0.70;;;;;;;;;;4943075;29;20713;-62
2020/12/25 13:38:10;;;;;;;2.85;0.80;;;;;;;;;;4944699;29;20831;-61
2020/12/25 13:40:36;;;;;;;3.00;0.60;;;;;;;;;;4942621;29;20047;-61
2020/12/25 13:43:02;;;;;;;2.78;0.63;;;;;;;;;;4944811;29;20086;-61
2020/12/25 13:45:28;;;;;;;3.47;0.77;;;;;;;;;;4944168;29;20049;-61
2020/12/25 13:47:53;;;;;;;4.53;1.00;;;;;;;;;;4943549;29;20039;-61
2020/12/25 13:50:19;;;;;;;2.38;0.70;;;;;;;;;;4944527;29;20055;-59
2020/12/25 13:52:45;;;;;;;12.15;0.95;;;;;;;;;;4943353;29;20043;-60
2020/12/25 13:55:11;;;;;;;4.35;0.95;;;;;;;;;;4946302;29;20039;-60
2020/12/25 13:57:37;;;;;;;6.53;1.52;;;;;;;;;;4944887;29;20037;-60
2020/12/25 14:00:03;;;;;;;4.97;1.45;;;;;;;;;;4949749;29;20066;-60
2020/12/25 14:02:29;;;;;;;5.43;1.10;;;;;;;;;;4948270;29;20050;-61
2020/12/25 14:04:56;;;;;;;7.03;1.20;;;;;;;;;;4949764;29;20055;-60
2020/12/25 14:07:22;;;;;;;3.95;1.10;;;;;;;;;;4947802;28;20050;-61
2020/12/25 14:09:48;;;;;;;3.80;1.05;;;;;;;;;;4952638;29;20047;-63
2020/12/25 14:12:13;;;;;;;4.13;1.25;;;;;;;;;;4951004;28;20127;-60
2020/12/25 14:14:39;;;;;;;4.15;1.38;;;;;;;;;;4932649;29;20083;-59
2020/12/25 14:17:05;;;;;;;6.10;1.55;;;;;;;;;;4949851;29;20039;-59
2020/12/25 14:19:31;;;;;;;5.32;1.17;;;;;;;;;;4950393;29;20111;-59
2020/12/25 14:21:57;;;;;;;4.80;0.98;;;;;;;;;;4949580;29;20118;-61
2020/12/25 14:24:23;;;;;;;5.75;1.20;;;;;;;;;;4932288;29;20023;-60
2020/12/25 14:26:49;;;;;;;4.43;1.45;;;;;;;;;;4950615;29;20067;-57
2020/12/25 14:29:15;;;;;;;4.15;1.00;;;;;;;;;;4952004;28;20050;-61
2020/12/25 14:31:40;;;;;;;3.78;1.15;;;;;;;;;;4948752;28;20040;-61
2020/12/25 14:34:06;;;;;;;6.65;1.00;;;;;;;;;;4950960;29;20078;-61
2020/12/25 14:36:32;;;;;;;4.55;1.10;;;;;;;;;;4950372;29;20046;-61
2020/12/25 14:38:58;;;;;;;7.30;1.35;;;;;;;;;;4951277;29;20051;-63